sensor_id;sensor_type;location;lat;lon;timestamp;P1;durP1;ratioP1;P2;durP2;ratioP2
15968;SDS011;8085;53.472;9.794;2022-09-09T00:02:18;61.50;;;28.30;;
15968;SDS011;8085;53.472;9.794;2022-09-09T00:04:48;57.67;;;28.30;;
15968;SDS011;8085;53.472;9.794;2022-09-09T00:07:25;52.27;;;27.37;;
15968;SDS011;8085;53.472;9.794;2022-09-09T00:10:06;47.10;;;25.70;;
15968;SDS011;8085;53.472;9.794;2022-09-09T00:12:42;44.43;;;24.43;;
15968;SDS011;8085;53.472;9.794;2022-09-09T00:15:21;47.97;;;25.97;;
15968;SDS011;8085;53.472;9.794;2022-09-09T00:17:57;52.50;;;27.03;;
15968;SDS011;8085;53.472;9.794;2022-09-09T00:20:30;52.80;;;26.30;;
15968;SDS011;8085;53.472;9.794;2022-09-09T00:23:14;51.73;;;26.13;;
15968;SDS011;8085;53.472;9.794;2022-09-09T00:25:53;40.53;;;21.57;;
15968;SDS011;8085;53.472;9.794;2022-09-09T00:28:24;43.40;;;23.67;;
15968;SDS011;8085;53.472;9.794;2022-09-09T00:30:54;45.20;;;24.00;;
15968;SDS011;8085;53.472;9.794;2022-09-09T00:33:24;45.23;;;23.70;;
15968;SDS011;8085;53.472;9.794;2022-09-09T00:35:53;45.67;;;23.57;;
15968;SDS011;8085;53.472;9.794;2022-09-09T00:38:24;42.27;;;23.50;;
15968;SDS011;8085;53.472;9.794;2022-09-09T00:40:55;43.50;;;22.37;;
15968;SDS011;8085;53.472;9.794;2022-09-09T00:43:29;40.03;;;22.43;;
15968;SDS011;8085;53.472;9.794;2022-09-09T00:48:59;35.10;;;20.50;;
15968;SDS011;8085;53.472;9.794;2022-09-09T00:51:38;32.53;;;19.27;;
15968;SDS011;8085;53.472;9.794;2022-09-09T00:54:16;39.63;;;20.20;;
15968;SDS011;8085;53.472;9.794;2022-09-09T00:57:07;38.43;;;19.80;;
15968;SDS011;8085;53.472;9.794;2022-09-09T00:59:42;39.23;;;21.77;;
15968;SDS011;8085;53.472;9.794;2022-09-09T01:02:15;38.43;;;21.77;;
15968;SDS011;8085;53.472;9.794;2022-09-09T01:04:53;34.70;;;18.30;;
15968;SDS011;8085;53.472;9.794;2022-09-09T01:07:20;34.73;;;20.17;;
15968;SDS011;8085;53.472;9.794;2022-09-09T01:09:51;40.83;;;21.00;;
15968;SDS011;8085;53.472;9.794;2022-09-09T01:15:09;34.03;;;18.77;;
15968;SDS011;8085;53.472;9.794;2022-09-09T01:17:41;34.13;;;18.63;;
15968;SDS011;8085;53.472;9.794;2022-09-09T01:20:17;34.60;;;19.77;;
15968;SDS011;8085;53.472;9.794;2022-09-09T01:22:50;33.43;;;18.57;;
15968;SDS011;8085;53.472;9.794;2022-09-09T01:25:28;29.80;;;17.77;;
15968;SDS011;8085;53.472;9.794;2022-09-09T01:28:26;40.20;;;21.10;;
15968;SDS011;8085;53.472;9.794;2022-09-09T01:30:54;39.53;;;19.67;;
15968;SDS011;8085;53.472;9.794;2022-09-09T01:33:22;35.57;;;19.47;;
15968;SDS011;8085;53.472;9.794;2022-09-09T01:35:50;34.60;;;18.80;;
15968;SDS011;8085;53.472;9.794;2022-09-09T01:38:20;31.47;;;17.73;;
15968;SDS011;8085;53.472;9.794;2022-09-09T01:40:49;31.73;;;17.90;;
15968;SDS011;8085;53.472;9.794;2022-09-09T01:43:17;37.83;;;20.40;;
15968;SDS011;8085;53.472;9.794;2022-09-09T01:45:44;31.20;;;18.40;;
15968;SDS011;8085;53.472;9.794;2022-09-09T01:48:14;30.93;;;17.80;;
15968;SDS011;8085;53.472;9.794;2022-09-09T01:50:42;25.63;;;15.63;;
15968;SDS011;8085;53.472;9.794;2022-09-09T01:53:09;36.73;;;18.43;;
15968;SDS011;8085;53.472;9.794;2022-09-09T01:55:39;32.50;;;16.63;;
15968;SDS011;8085;53.472;9.794;2022-09-09T01:58:16;27.77;;;17.20;;
15968;SDS011;8085;53.472;9.794;2022-09-09T02:00:56;35.13;;;18.10;;
15968;SDS011;8085;53.472;9.794;2022-09-09T02:03:28;33.60;;;18.63;;
15968;SDS011;8085;53.472;9.794;2022-09-09T02:06:00;32.87;;;16.73;;
15968;SDS011;8085;53.472;9.794;2022-09-09T02:08:36;30.50;;;18.87;;
15968;SDS011;8085;53.472;9.794;2022-09-09T02:11:09;33.43;;;17.60;;
15968;SDS011;8085;53.472;9.794;2022-09-09T02:13:40;37.93;;;20.13;;
15968;SDS011;8085;53.472;9.794;2022-09-09T02:16:11;34.00;;;19.07;;
15968;SDS011;8085;53.472;9.794;2022-09-09T02:18:42;37.97;;;20.80;;
15968;SDS011;8085;53.472;9.794;2022-09-09T02:21:13;36.53;;;18.80;;
15968;SDS011;8085;53.472;9.794;2022-09-09T02:23:42;38.23;;;20.97;;
15968;SDS011;8085;53.472;9.794;2022-09-09T02:26:12;43.33;;;21.37;;
15968;SDS011;8085;53.472;9.794;2022-09-09T02:28:46;48.30;;;21.93;;
15968;SDS011;8085;53.472;9.794;2022-09-09T02:31:14;43.57;;;22.50;;
15968;SDS011;8085;53.472;9.794;2022-09-09T02:33:46;50.33;;;24.07;;
15968;SDS011;8085;53.472;9.794;2022-09-09T02:36:17;46.63;;;22.40;;
15968;SDS011;8085;53.472;9.794;2022-09-09T02:38:47;44.87;;;23.77;;
15968;SDS011;8085;53.472;9.794;2022-09-09T02:41:22;40.73;;;23.00;;
15968;SDS011;8085;53.472;9.794;2022-09-09T02:43:55;46.47;;;21.17;;
15968;SDS011;8085;53.472;9.794;2022-09-09T02:46:25;46.20;;;23.87;;
15968;SDS011;8085;53.472;9.794;2022-09-09T02:49:03;44.73;;;22.60;;
15968;SDS011;8085;53.472;9.794;2022-09-09T02:51:37;39.73;;;21.23;;
15968;SDS011;8085;53.472;9.794;2022-09-09T02:54:14;33.60;;;18.93;;
15968;SDS011;8085;53.472;9.794;2022-09-09T02:56:49;37.93;;;22.13;;
15968;SDS011;8085;53.472;9.794;2022-09-09T02:59:20;33.13;;;18.93;;
15968;SDS011;8085;53.472;9.794;2022-09-09T03:01:49;35.33;;;20.10;;
15968;SDS011;8085;53.472;9.794;2022-09-09T03:04:16;37.13;;;21.27;;
15968;SDS011;8085;53.472;9.794;2022-09-09T03:06:43;38.47;;;22.03;;
15968;SDS011;8085;53.472;9.794;2022-09-09T03:09:09;35.53;;;20.27;;
15968;SDS011;8085;53.472;9.794;2022-09-09T03:11:36;32.43;;;19.33;;
15968;SDS011;8085;53.472;9.794;2022-09-09T03:14:04;37.27;;;20.83;;
15968;SDS011;8085;53.472;9.794;2022-09-09T03:16:32;40.50;;;21.97;;
15968;SDS011;8085;53.472;9.794;2022-09-09T03:18:59;37.23;;;19.67;;
15968;SDS011;8085;53.472;9.794;2022-09-09T03:21:26;40.30;;;20.97;;
15968;SDS011;8085;53.472;9.794;2022-09-09T03:23:53;37.47;;;19.27;;
15968;SDS011;8085;53.472;9.794;2022-09-09T03:26:20;36.47;;;19.00;;
15968;SDS011;8085;53.472;9.794;2022-09-09T03:28:48;33.73;;;19.20;;
15968;SDS011;8085;53.472;9.794;2022-09-09T03:31:16;28.70;;;17.57;;
15968;SDS011;8085;53.472;9.794;2022-09-09T03:33:46;37.33;;;19.60;;
15968;SDS011;8085;53.472;9.794;2022-09-09T03:36:13;36.70;;;20.40;;
15968;SDS011;8085;53.472;9.794;2022-09-09T03:38:40;39.00;;;19.97;;
15968;SDS011;8085;53.472;9.794;2022-09-09T03:41:07;35.57;;;20.80;;
15968;SDS011;8085;53.472;9.794;2022-09-09T03:43:34;35.97;;;19.73;;
15968;SDS011;8085;53.472;9.794;2022-09-09T03:46:02;31.43;;;18.70;;
15968;SDS011;8085;53.472;9.794;2022-09-09T03:48:29;33.23;;;17.80;;
15968;SDS011;8085;53.472;9.794;2022-09-09T03:50:57;24.87;;;16.70;;
15968;SDS011;8085;53.472;9.794;2022-09-09T03:53:26;29.17;;;16.57;;
15968;SDS011;8085;53.472;9.794;2022-09-09T03:55:54;31.07;;;17.33;;
15968;SDS011;8085;53.472;9.794;2022-09-09T03:58:25;27.63;;;16.67;;
15968;SDS011;8085;53.472;9.794;2022-09-09T04:00:53;27.47;;;16.13;;
15968;SDS011;8085;53.472;9.794;2022-09-09T04:03:21;26.97;;;16.53;;
15968;SDS011;8085;53.472;9.794;2022-09-09T04:05:49;26.70;;;16.43;;
15968;SDS011;8085;53.472;9.794;2022-09-09T04:08:18;24.47;;;15.67;;
15968;SDS011;8085;53.472;9.794;2022-09-09T04:10:46;25.87;;;16.40;;
15968;SDS011;8085;53.472;9.794;2022-09-09T04:13:13;22.90;;;14.37;;
15968;SDS011;8085;53.472;9.794;2022-09-09T04:16:16;23.13;;;15.37;;
15968;SDS011;8085;53.472;9.794;2022-09-09T04:18:45;23.03;;;14.27;;
15968;SDS011;8085;53.472;9.794;2022-09-09T04:21:12;24.80;;;13.87;;
15968;SDS011;8085;53.472;9.794;2022-09-09T04:23:41;20.93;;;12.87;;
15968;SDS011;8085;53.472;9.794;2022-09-09T04:26:08;23.40;;;13.00;;
15968;SDS011;8085;53.472;9.794;2022-09-09T04:28:35;21.50;;;12.47;;
15968;SDS011;8085;53.472;9.794;2022-09-09T04:31:03;19.53;;;12.13;;
15968;SDS011;8085;53.472;9.794;2022-09-09T04:33:31;18.53;;;11.93;;
15968;SDS011;8085;53.472;9.794;2022-09-09T04:35:58;17.13;;;11.23;;
15968;SDS011;8085;53.472;9.794;2022-09-09T04:38:25;18.30;;;10.57;;
15968;SDS011;8085;53.472;9.794;2022-09-09T04:40:54;15.27;;;10.90;;
15968;SDS011;8085;53.472;9.794;2022-09-09T04:43:21;13.10;;;9.40;;
15968;SDS011;8085;53.472;9.794;2022-09-09T04:45:51;12.60;;;9.70;;
15968;SDS011;8085;53.472;9.794;2022-09-09T04:48:17;14.67;;;9.13;;
15968;SDS011;8085;53.472;9.794;2022-09-09T04:50:53;12.70;;;8.40;;
15968;SDS011;8085;53.472;9.794;2022-09-09T04:53:20;13.87;;;8.27;;
15968;SDS011;8085;53.472;9.794;2022-09-09T04:55:47;12.63;;;8.63;;
15968;SDS011;8085;53.472;9.794;2022-09-09T04:58:16;13.83;;;8.37;;
15968;SDS011;8085;53.472;9.794;2022-09-09T05:00:43;16.03;;;8.40;;
15968;SDS011;8085;53.472;9.794;2022-09-09T05:03:10;13.87;;;7.97;;
15968;SDS011;8085;53.472;9.794;2022-09-09T05:05:37;13.57;;;8.20;;
15968;SDS011;8085;53.472;9.794;2022-09-09T05:08:05;13.30;;;7.07;;
15968;SDS011;8085;53.472;9.794;2022-09-09T05:10:33;9.43;;;6.43;;
15968;SDS011;8085;53.472;9.794;2022-09-09T05:13:02;10.60;;;6.87;;
15968;SDS011;8085;53.472;9.794;2022-09-09T05:15:31;8.90;;;6.77;;
15968;SDS011;8085;53.472;9.794;2022-09-09T05:17:58;11.13;;;6.80;;
15968;SDS011;8085;53.472;9.794;2022-09-09T05:20:26;9.17;;;6.00;;
15968;SDS011;8085;53.472;9.794;2022-09-09T05:22:53;13.00;;;6.97;;
15968;SDS011;8085;53.472;9.794;2022-09-09T05:25:21;12.87;;;6.93;;
15968;SDS011;8085;53.472;9.794;2022-09-09T05:27:51;10.43;;;6.57;;
15968;SDS011;8085;53.472;9.794;2022-09-09T05:30:22;8.77;;;6.20;;
15968;SDS011;8085;53.472;9.794;2022-09-09T05:35:44;9.50;;;5.53;;
15968;SDS011;8085;53.472;9.794;2022-09-09T05:38:11;8.60;;;5.33;;
15968;SDS011;8085;53.472;9.794;2022-09-09T05:40:39;8.43;;;5.00;;
15968;SDS011;8085;53.472;9.794;2022-09-09T05:43:15;9.77;;;5.13;;
15968;SDS011;8085;53.472;9.794;2022-09-09T05:45:42;7.37;;;4.93;;
15968;SDS011;8085;53.472;9.794;2022-09-09T05:48:08;6.57;;;4.80;;
15968;SDS011;8085;53.472;9.794;2022-09-09T05:50:37;6.80;;;4.70;;
15968;SDS011;8085;53.472;9.794;2022-09-09T05:53:04;7.53;;;4.73;;
15968;SDS011;8085;53.472;9.794;2022-09-09T05:55:30;6.87;;;4.80;;
15968;SDS011;8085;53.472;9.794;2022-09-09T05:57:57;12.37;;;5.47;;
15968;SDS011;8085;53.472;9.794;2022-09-09T06:00:24;6.67;;;4.83;;
15968;SDS011;8085;53.472;9.794;2022-09-09T06:02:51;6.33;;;4.97;;
15968;SDS011;8085;53.472;9.794;2022-09-09T06:05:18;6.33;;;4.77;;
15968;SDS011;8085;53.472;9.794;2022-09-09T06:07:46;7.90;;;5.30;;
15968;SDS011;8085;53.472;9.794;2022-09-09T06:10:14;7.20;;;4.70;;
15968;SDS011;8085;53.472;9.794;2022-09-09T06:12:42;8.00;;;4.77;;
15968;SDS011;8085;53.472;9.794;2022-09-09T06:15:09;7.47;;;5.30;;
15968;SDS011;8085;53.472;9.794;2022-09-09T06:17:36;7.97;;;5.03;;
15968;SDS011;8085;53.472;9.794;2022-09-09T06:20:04;6.73;;;4.80;;
15968;SDS011;8085;53.472;9.794;2022-09-09T06:22:31;7.20;;;5.10;;
15968;SDS011;8085;53.472;9.794;2022-09-09T06:24:59;7.20;;;4.57;;
15968;SDS011;8085;53.472;9.794;2022-09-09T06:27:27;6.17;;;4.40;;
15968;SDS011;8085;53.472;9.794;2022-09-09T06:29:54;8.93;;;4.93;;
15968;SDS011;8085;53.472;9.794;2022-09-09T06:32:21;5.53;;;4.33;;
15968;SDS011;8085;53.472;9.794;2022-09-09T06:34:48;7.30;;;4.80;;
15968;SDS011;8085;53.472;9.794;2022-09-09T06:37:15;6.13;;;4.50;;
15968;SDS011;8085;53.472;9.794;2022-09-09T06:39:42;7.23;;;4.17;;
15968;SDS011;8085;53.472;9.794;2022-09-09T06:42:10;5.27;;;4.03;;
15968;SDS011;8085;53.472;9.794;2022-09-09T06:44:37;6.33;;;4.50;;
15968;SDS011;8085;53.472;9.794;2022-09-09T06:47:04;8.73;;;4.40;;
15968;SDS011;8085;53.472;9.794;2022-09-09T06:49:47;8.63;;;4.43;;
15968;SDS011;8085;53.472;9.794;2022-09-09T06:52:14;6.37;;;4.40;;
15968;SDS011;8085;53.472;9.794;2022-09-09T06:54:43;5.60;;;4.00;;
15968;SDS011;8085;53.472;9.794;2022-09-09T06:57:11;5.97;;;3.97;;
15968;SDS011;8085;53.472;9.794;2022-09-09T06:59:38;6.67;;;3.67;;
15968;SDS011;8085;53.472;9.794;2022-09-09T07:02:05;4.87;;;3.87;;
15968;SDS011;8085;53.472;9.794;2022-09-09T07:04:33;6.67;;;3.80;;
15968;SDS011;8085;53.472;9.794;2022-09-09T07:07:00;8.30;;;4.20;;
15968;SDS011;8085;53.472;9.794;2022-09-09T07:09:27;4.70;;;3.63;;
15968;SDS011;8085;53.472;9.794;2022-09-09T07:11:54;6.70;;;3.67;;
15968;SDS011;8085;53.472;9.794;2022-09-09T07:14:25;9.23;;;3.77;;
15968;SDS011;8085;53.472;9.794;2022-09-09T07:16:52;7.37;;;3.77;;
15968;SDS011;8085;53.472;9.794;2022-09-09T07:19:19;6.53;;;3.40;;
15968;SDS011;8085;53.472;9.794;2022-09-09T07:21:46;8.37;;;3.60;;
15968;SDS011;8085;53.472;9.794;2022-09-09T07:24:13;5.33;;;3.53;;
15968;SDS011;8085;53.472;9.794;2022-09-09T07:26:40;7.93;;;3.43;;
15968;SDS011;8085;53.472;9.794;2022-09-09T07:29:09;6.27;;;3.97;;
15968;SDS011;8085;53.472;9.794;2022-09-09T07:31:41;6.80;;;3.63;;
15968;SDS011;8085;53.472;9.794;2022-09-09T07:34:08;8.37;;;4.73;;
15968;SDS011;8085;53.472;9.794;2022-09-09T07:36:35;5.67;;;3.97;;
15968;SDS011;8085;53.472;9.794;2022-09-09T07:39:05;4.27;;;3.17;;
15968;SDS011;8085;53.472;9.794;2022-09-09T07:41:34;5.10;;;3.60;;
15968;SDS011;8085;53.472;9.794;2022-09-09T07:44:06;5.30;;;3.47;;
15968;SDS011;8085;53.472;9.794;2022-09-09T07:46:33;5.50;;;2.83;;
15968;SDS011;8085;53.472;9.794;2022-09-09T07:49:02;5.53;;;3.40;;
15968;SDS011;8085;53.472;9.794;2022-09-09T07:51:30;5.13;;;2.50;;
15968;SDS011;8085;53.472;9.794;2022-09-09T07:54:02;3.77;;;2.60;;
15968;SDS011;8085;53.472;9.794;2022-09-09T07:56:30;5.07;;;2.93;;
15968;SDS011;8085;53.472;9.794;2022-09-09T07:58:58;5.07;;;3.00;;
15968;SDS011;8085;53.472;9.794;2022-09-09T08:01:27;4.27;;;2.47;;
15968;SDS011;8085;53.472;9.794;2022-09-09T08:03:56;4.37;;;2.20;;
15968;SDS011;8085;53.472;9.794;2022-09-09T08:06:27;3.63;;;1.83;;
15968;SDS011;8085;53.472;9.794;2022-09-09T08:08:57;5.20;;;2.23;;
15968;SDS011;8085;53.472;9.794;2022-09-09T08:11:24;7.13;;;2.50;;
15968;SDS011;8085;53.472;9.794;2022-09-09T08:13:53;5.97;;;2.37;;
15968;SDS011;8085;53.472;9.794;2022-09-09T08:16:22;6.03;;;2.53;;
15968;SDS011;8085;53.472;9.794;2022-09-09T08:18:50;3.80;;;2.40;;
15968;SDS011;8085;53.472;9.794;2022-09-09T08:21:20;5.63;;;2.10;;
15968;SDS011;8085;53.472;9.794;2022-09-09T08:23:50;5.70;;;2.23;;
15968;SDS011;8085;53.472;9.794;2022-09-09T08:26:19;4.17;;;2.00;;
15968;SDS011;8085;53.472;9.794;2022-09-09T08:28:48;5.33;;;2.30;;
15968;SDS011;8085;53.472;9.794;2022-09-09T08:31:17;5.70;;;2.20;;
15968;SDS011;8085;53.472;9.794;2022-09-09T08:33:46;6.37;;;2.20;;
15968;SDS011;8085;53.472;9.794;2022-09-09T08:36:14;3.03;;;1.97;;
15968;SDS011;8085;53.472;9.794;2022-09-09T08:38:43;5.37;;;1.70;;
15968;SDS011;8085;53.472;9.794;2022-09-09T08:41:21;3.40;;;1.50;;
15968;SDS011;8085;53.472;9.794;2022-09-09T08:44:07;2.70;;;1.70;;
15968;SDS011;8085;53.472;9.794;2022-09-09T08:46:46;1.87;;;1.53;;
15968;SDS011;8085;53.472;9.794;2022-09-09T08:49:48;3.30;;;1.30;;
15968;SDS011;8085;53.472;9.794;2022-09-09T08:52:28;3.50;;;1.00;;
15968;SDS011;8085;53.472;9.794;2022-09-09T08:54:58;1.30;;;1.00;;
15968;SDS011;8085;53.472;9.794;2022-09-09T08:57:31;3.17;;;1.33;;
15968;SDS011;8085;53.472;9.794;2022-09-09T08:59:59;1.77;;;1.00;;
15968;SDS011;8085;53.472;9.794;2022-09-09T09:02:28;1.13;;;0.83;;
15968;SDS011;8085;53.472;9.794;2022-09-09T09:05:02;3.83;;;1.10;;
15968;SDS011;8085;53.472;9.794;2022-09-09T09:07:42;3.43;;;0.90;;
15968;SDS011;8085;53.472;9.794;2022-09-09T09:10:20;1.53;;;0.90;;
15968;SDS011;8085;53.472;9.794;2022-09-09T09:12:59;1.73;;;0.80;;
15968;SDS011;8085;53.472;9.794;2022-09-09T09:15:28;3.33;;;1.20;;
15968;SDS011;8085;53.472;9.794;2022-09-09T09:18:01;2.30;;;1.00;;
15968;SDS011;8085;53.472;9.794;2022-09-09T09:20:32;2.43;;;1.10;;
15968;SDS011;8085;53.472;9.794;2022-09-09T09:23:12;3.90;;;1.17;;
15968;SDS011;8085;53.472;9.794;2022-09-09T09:26:00;3.97;;;1.23;;
15968;SDS011;8085;53.472;9.794;2022-09-09T09:28:29;2.57;;;1.00;;
15968;SDS011;8085;53.472;9.794;2022-09-09T09:30:58;1.10;;;0.80;;
15968;SDS011;8085;53.472;9.794;2022-09-09T09:33:31;4.83;;;1.10;;
15968;SDS011;8085;53.472;9.794;2022-09-09T09:36:03;2.17;;;1.03;;
15968;SDS011;8085;53.472;9.794;2022-09-09T09:38:33;3.23;;;0.90;;
15968;SDS011;8085;53.472;9.794;2022-09-09T09:41:01;3.00;;;0.90;;
15968;SDS011;8085;53.472;9.794;2022-09-09T09:43:30;2.67;;;1.00;;
15968;SDS011;8085;53.472;9.794;2022-09-09T09:46:00;1.53;;;0.67;;
15968;SDS011;8085;53.472;9.794;2022-09-09T09:48:29;2.93;;;0.70;;
15968;SDS011;8085;53.472;9.794;2022-09-09T09:50:57;0.90;;;0.60;;
15968;SDS011;8085;53.472;9.794;2022-09-09T09:53:28;5.00;;;0.70;;
15968;SDS011;8085;53.472;9.794;2022-09-09T09:55:57;2.77;;;0.90;;
15968;SDS011;8085;53.472;9.794;2022-09-09T09:58:26;2.77;;;1.00;;
15968;SDS011;8085;53.472;9.794;2022-09-09T10:00:58;1.43;;;0.60;;
15968;SDS011;8085;53.472;9.794;2022-09-09T10:03:26;2.00;;;0.60;;
15968;SDS011;8085;53.472;9.794;2022-09-09T10:05:54;2.53;;;0.77;;
15968;SDS011;8085;53.472;9.794;2022-09-09T10:08:23;2.17;;;0.63;;
15968;SDS011;8085;53.472;9.794;2022-09-09T10:10:57;1.65;;;0.60;;
15968;SDS011;8085;53.472;9.794;2022-09-09T10:13:39;1.55;;;0.70;;
15968;SDS011;8085;53.472;9.794;2022-09-09T10:16:20;1.70;;;0.70;;
15968;SDS011;8085;53.472;9.794;2022-09-09T10:18:58;1.58;;;0.77;;
15968;SDS011;8085;53.472;9.794;2022-09-09T10:21:32;2.72;;;1.00;;
15968;SDS011;8085;53.472;9.794;2022-09-09T10:24:32;1.63;;;0.98;;
15968;SDS011;8085;53.472;9.794;2022-09-09T10:27:18;2.03;;;0.75;;
15968;SDS011;8085;53.472;9.794;2022-09-09T10:29:59;3.42;;;0.82;;
15968;SDS011;8085;53.472;9.794;2022-09-09T10:32:37;4.38;;;1.00;;
15968;SDS011;8085;53.472;9.794;2022-09-09T10:35:12;2.17;;;1.10;;
15968;SDS011;8085;53.472;9.794;2022-09-09T10:37:53;3.75;;;0.80;;
15968;SDS011;8085;53.472;9.794;2022-09-09T10:40:37;1.63;;;1.00;;
15968;SDS011;8085;53.472;9.794;2022-09-09T10:43:11;3.50;;;1.08;;
15968;SDS011;8085;53.472;9.794;2022-09-09T10:45:47;2.95;;;0.90;;
15968;SDS011;8085;53.472;9.794;2022-09-09T10:48:26;3.47;;;0.98;;
15968;SDS011;8085;53.472;9.794;2022-09-09T10:51:05;3.58;;;1.25;;
15968;SDS011;8085;53.472;9.794;2022-09-09T10:53:45;3.53;;;1.10;;
15968;SDS011;8085;53.472;9.794;2022-09-09T10:56:20;2.05;;;0.95;;
15968;SDS011;8085;53.472;9.794;2022-09-09T10:58:49;2.70;;;1.20;;
15968;SDS011;8085;53.472;9.794;2022-09-09T11:01:20;4.00;;;1.10;;
15968;SDS011;8085;53.472;9.794;2022-09-09T11:03:53;5.20;;;1.33;;
15968;SDS011;8085;53.472;9.794;2022-09-09T11:06:25;2.50;;;1.00;;
15968;SDS011;8085;53.472;9.794;2022-09-09T11:08:58;2.13;;;0.97;;
15968;SDS011;8085;53.472;9.794;2022-09-09T11:11:29;2.80;;;1.00;;
15968;SDS011;8085;53.472;9.794;2022-09-09T11:14:00;2.07;;;0.90;;
15968;SDS011;8085;53.472;9.794;2022-09-09T11:16:39;5.60;;;1.20;;
15968;SDS011;8085;53.472;9.794;2022-09-09T11:22:29;3.90;;;1.20;;
15968;SDS011;8085;53.472;9.794;2022-09-09T11:24:59;3.07;;;1.10;;
15968;SDS011;8085;53.472;9.794;2022-09-09T11:27:35;2.27;;;1.00;;
15968;SDS011;8085;53.472;9.794;2022-09-09T11:30:16;3.10;;;1.10;;
15968;SDS011;8085;53.472;9.794;2022-09-09T11:36:13;3.50;;;1.20;;
15968;SDS011;8085;53.472;9.794;2022-09-09T11:38:53;2.43;;;1.20;;
15968;SDS011;8085;53.472;9.794;2022-09-09T11:41:32;4.30;;;1.50;;
15968;SDS011;8085;53.472;9.794;2022-09-09T11:44:09;3.20;;;1.07;;
15968;SDS011;8085;53.472;9.794;2022-09-09T11:46:44;2.13;;;1.03;;
15968;SDS011;8085;53.472;9.794;2022-09-09T11:49:40;3.07;;;1.10;;
15968;SDS011;8085;53.472;9.794;2022-09-09T11:52:40;5.43;;;1.80;;
15968;SDS011;8085;53.472;9.794;2022-09-09T11:55:24;3.60;;;0.90;;
15968;SDS011;8085;53.472;9.794;2022-09-09T11:57:57;3.13;;;1.20;;
15968;SDS011;8085;53.472;9.794;2022-09-09T12:00:31;2.27;;;0.90;;
15968;SDS011;8085;53.472;9.794;2022-09-09T12:03:02;5.65;;;1.10;;
15968;SDS011;8085;53.472;9.794;2022-09-09T12:05:36;2.22;;;0.90;;
15968;SDS011;8085;53.472;9.794;2022-09-09T12:08:05;5.88;;;1.02;;
15968;SDS011;8085;53.472;9.794;2022-09-09T12:10:37;4.47;;;1.20;;
15968;SDS011;8085;53.472;9.794;2022-09-09T12:13:15;4.78;;;0.93;;
15968;SDS011;8085;53.472;9.794;2022-09-09T12:15:47;4.97;;;0.93;;
15968;SDS011;8085;53.472;9.794;2022-09-09T12:18:18;3.00;;;1.00;;
15968;SDS011;8085;53.472;9.794;2022-09-09T12:24:01;2.83;;;1.17;;
15968;SDS011;8085;53.472;9.794;2022-09-09T12:26:35;2.00;;;1.10;;
15968;SDS011;8085;53.472;9.794;2022-09-09T12:29:11;3.55;;;1.10;;
15968;SDS011;8085;53.472;9.794;2022-09-09T12:31:56;2.20;;;1.00;;
15968;SDS011;8085;53.472;9.794;2022-09-09T12:34:30;2.43;;;1.10;;
15968;SDS011;8085;53.472;9.794;2022-09-09T12:37:03;7.77;;;1.20;;
15968;SDS011;8085;53.472;9.794;2022-09-09T12:39:38;2.70;;;1.10;;
15968;SDS011;8085;53.472;9.794;2022-09-09T12:42:17;1.87;;;0.80;;
15968;SDS011;8085;53.472;9.794;2022-09-09T12:44:51;4.13;;;1.27;;
15968;SDS011;8085;53.472;9.794;2022-09-09T12:47:19;2.60;;;1.10;;
15968;SDS011;8085;53.472;9.794;2022-09-09T12:49:47;2.37;;;1.00;;
15968;SDS011;8085;53.472;9.794;2022-09-09T12:52:17;3.37;;;0.97;;
15968;SDS011;8085;53.472;9.794;2022-09-09T12:54:50;2.87;;;1.00;;
15968;SDS011;8085;53.472;9.794;2022-09-09T12:57:20;2.17;;;1.13;;
15968;SDS011;8085;53.472;9.794;2022-09-09T12:59:50;3.27;;;1.10;;
15968;SDS011;8085;53.472;9.794;2022-09-09T13:02:19;3.43;;;1.03;;
15968;SDS011;8085;53.472;9.794;2022-09-09T13:04:47;1.93;;;0.80;;
15968;SDS011;8085;53.472;9.794;2022-09-09T13:07:15;2.97;;;1.20;;
15968;SDS011;8085;53.472;9.794;2022-09-09T13:09:45;2.77;;;1.30;;
15968;SDS011;8085;53.472;9.794;2022-09-09T13:13:31;3.87;;;0.83;;
15968;SDS011;8085;53.472;9.794;2022-09-09T13:16:03;2.93;;;0.93;;
15968;SDS011;8085;53.472;9.794;2022-09-09T13:18:33;3.57;;;0.90;;
15968;SDS011;8085;53.472;9.794;2022-09-09T13:21:03;1.80;;;0.87;;
15968;SDS011;8085;53.472;9.794;2022-09-09T13:23:31;1.73;;;0.73;;
15968;SDS011;8085;53.472;9.794;2022-09-09T13:26:01;3.13;;;1.00;;
15968;SDS011;8085;53.472;9.794;2022-09-09T13:28:34;2.33;;;1.13;;
15968;SDS011;8085;53.472;9.794;2022-09-09T13:31:01;2.93;;;0.93;;
15968;SDS011;8085;53.472;9.794;2022-09-09T13:33:33;2.80;;;1.30;;
15968;SDS011;8085;53.472;9.794;2022-09-09T13:36:03;4.57;;;1.57;;
15968;SDS011;8085;53.472;9.794;2022-09-09T13:38:32;3.43;;;1.33;;
15968;SDS011;8085;53.472;9.794;2022-09-09T13:41:03;3.73;;;1.40;;
15968;SDS011;8085;53.472;9.794;2022-09-09T13:43:35;4.77;;;1.70;;
15968;SDS011;8085;53.472;9.794;2022-09-09T13:46:05;4.03;;;1.40;;
15968;SDS011;8085;53.472;9.794;2022-09-09T13:48:53;3.10;;;1.30;;
15968;SDS011;8085;53.472;9.794;2022-09-09T13:51:25;5.70;;;1.90;;
15968;SDS011;8085;53.472;9.794;2022-09-09T13:53:59;2.30;;;1.60;;
15968;SDS011;8085;53.472;9.794;2022-09-09T13:56:26;2.27;;;1.53;;
15968;SDS011;8085;53.472;9.794;2022-09-09T13:58:54;4.17;;;1.50;;
15968;SDS011;8085;53.472;9.794;2022-09-09T14:01:22;4.80;;;1.50;;
15968;SDS011;8085;53.472;9.794;2022-09-09T14:03:49;2.53;;;1.40;;
15968;SDS011;8085;53.472;9.794;2022-09-09T14:06:17;5.30;;;1.40;;
15968;SDS011;8085;53.472;9.794;2022-09-09T14:08:47;2.73;;;1.20;;
15968;SDS011;8085;53.472;9.794;2022-09-09T14:11:15;2.97;;;1.50;;
15968;SDS011;8085;53.472;9.794;2022-09-09T14:13:43;2.90;;;1.70;;
15968;SDS011;8085;53.472;9.794;2022-09-09T14:16:12;4.67;;;1.57;;
15968;SDS011;8085;53.472;9.794;2022-09-09T14:18:39;3.80;;;1.50;;
15968;SDS011;8085;53.472;9.794;2022-09-09T14:21:07;2.40;;;1.47;;
15968;SDS011;8085;53.472;9.794;2022-09-09T14:27:32;4.73;;;1.70;;
15968;SDS011;8085;53.472;9.794;2022-09-09T14:30:36;3.47;;;1.60;;
15968;SDS011;8085;53.472;9.794;2022-09-09T14:33:39;2.60;;;1.30;;
15968;SDS011;8085;53.472;9.794;2022-09-09T14:36:08;2.23;;;1.40;;
15968;SDS011;8085;53.472;9.794;2022-09-09T14:38:36;2.73;;;1.30;;
15968;SDS011;8085;53.472;9.794;2022-09-09T14:41:04;5.80;;;1.70;;
15968;SDS011;8085;53.472;9.794;2022-09-09T14:43:31;2.70;;;1.20;;
15968;SDS011;8085;53.472;9.794;2022-09-09T14:46:03;3.60;;;1.40;;
15968;SDS011;8085;53.472;9.794;2022-09-09T14:48:34;4.13;;;1.70;;
15968;SDS011;8085;53.472;9.794;2022-09-09T14:51:06;2.17;;;1.43;;
15968;SDS011;8085;53.472;9.794;2022-09-09T14:53:34;2.70;;;1.50;;
15968;SDS011;8085;53.472;9.794;2022-09-09T14:56:05;4.80;;;1.50;;
15968;SDS011;8085;53.472;9.794;2022-09-09T14:58:34;4.50;;;1.70;;
15968;SDS011;8085;53.472;9.794;2022-09-09T15:01:02;4.33;;;1.60;;
15968;SDS011;8085;53.472;9.794;2022-09-09T15:03:30;2.83;;;1.23;;
15968;SDS011;8085;53.472;9.794;2022-09-09T15:05:57;5.17;;;1.43;;
15968;SDS011;8085;53.472;9.794;2022-09-09T15:08:25;2.33;;;1.30;;
15968;SDS011;8085;53.472;9.794;2022-09-09T15:10:58;2.73;;;1.70;;
15968;SDS011;8085;53.472;9.794;2022-09-09T15:13:28;4.77;;;1.93;;
15968;SDS011;8085;53.472;9.794;2022-09-09T15:16:03;6.20;;;1.67;;
15968;SDS011;8085;53.472;9.794;2022-09-09T15:18:30;4.33;;;1.67;;
15968;SDS011;8085;53.472;9.794;2022-09-09T15:20:58;4.23;;;1.80;;
15968;SDS011;8085;53.472;9.794;2022-09-09T15:23:27;3.07;;;1.70;;
15968;SDS011;8085;53.472;9.794;2022-09-09T15:25:55;2.50;;;1.80;;
15968;SDS011;8085;53.472;9.794;2022-09-09T15:28:22;2.07;;;0.93;;
15968;SDS011;8085;53.472;9.794;2022-09-09T15:30:50;4.97;;;1.30;;
15968;SDS011;8085;53.472;9.794;2022-09-09T15:33:18;2.33;;;1.03;;
15968;SDS011;8085;53.472;9.794;2022-09-09T15:35:45;3.27;;;1.50;;
15968;SDS011;8085;53.472;9.794;2022-09-09T15:38:12;3.93;;;1.40;;
15968;SDS011;8085;53.472;9.794;2022-09-09T15:40:41;2.83;;;1.30;;
15968;SDS011;8085;53.472;9.794;2022-09-09T15:43:12;3.27;;;1.50;;